Latest Weather Observations for Mackay Airport

IDQ60801

Issued at 10:52 pm EST Monday 6 April 2020 (issued every 10 minutes, with the page automatically refreshed every 10 minutes)

About weather observations | Map of weather stations | Latest weather observations for QLD | Other Formats
Station Details ID: 033045 Name: MACKAY AERO Lat: -21.17 Lon: 149.18 Height: 4.7 m
Data from the previous 72 hours. | See also: Recent months at Mackay Airport
Date/Time
EST
Temp
°C
App
Temp
°C
Dew
Point
°C
Rel
Hum
%
Delta-T
°C
Wind Press
QNH
hPa
Press
MSL
hPa
Rain since
9am
mm
Dir  Spd
km/h
Gust
km/h
Spd
kts
Gust
kts
06/10:30pm 25.3 25.8 20.8 76 3.0 ESE 19 24 10 13 1013.7 1013.7 0.0
06/10:00pm 25.7 25.4 20.3 72 3.5 SE 22 28 12 15 1014.0 1014.0 0.0
06/09:30pm 25.6 25.7 19.9 70 3.7 ESE 19 24 10 13 1014.2 1014.2 0.0
06/09:00pm 25.8 25.9 19.9 70 3.8 ESE 19 26 10 14 1014.2 1014.2 0.0
06/08:30pm 25.6 26.7 20.4 73 3.4 SE 15 20 8 11 1014.1 1014.1 0.0
06/08:00pm 25.3 26.1 19.9 72 3.5 ESE 15 20 8 11 1013.9 1013.9 0.0
06/07:30pm 25.4 25.4 19.8 71 3.6 SE 19 22 10 12 1013.4 1013.4 0.0
06/07:00pm 25.2 26.2 20.2 74 3.3 ESE 15 19 8 10 1013.2 1013.2 0.0
06/06:30pm 25.3 26.1 19.9 72 3.5 ESE 15 20 8 11 1013.0 1013.0 0.0
06/06:00pm 25.4 25.4 19.8 71 3.6 SE 19 22 10 12 1012.7 1012.7 0.0
06/05:30pm 25.9 26.1 20.5 72 3.5 ESE 20 28 11 15 1012.4 1012.4 0.0
06/05:00pm 26.6 27.0 20.9 71 3.8 ESE 20 28 11 15 1012.1 1012.1 0.0
06/04:30pm 26.9 26.9 21.0 70 3.9 ESE 22 30 12 16 1011.8 1011.8 0.0
06/04:00pm 27.1 26.6 21.4 71 3.8 ESE 26 32 14 17 1011.7 1011.7 0.0
06/03:30pm 27.4 26.4 21.2 69 4.1 ESE 28 33 15 18 1011.7 1011.7 0.0
06/03:00pm 27.8 27.8 23.0 75 3.3 ESE 28 33 15 18 1011.7 1011.7 0.0
06/02:30pm 28.0 27.5 22.2 70 3.9 ESE 28 37 15 20 1011.8 1011.8 0.0
06/02:00pm 28.2 28.0 22.0 69 4.2 SE 26 33 14 18 1012.0 1012.0 0.0
06/01:30pm 28.1 27.5 22.6 72 3.7 SE 30 37 16 20 1012.3 1012.3 0.0
06/01:00pm 28.2 27.8 21.7 68 4.4 SE 26 33 14 18 1012.8 1012.8 0.0
06/12:30pm 28.2 27.7 22.2 70 4.0 ESE 28 35 15 19 1013.4 1013.4 0.0
06/12:00pm 28.7 28.9 22.7 70 4.1 ESE 26 35 14 19 1013.9 1013.9 0.0
06/11:30am 28.4 29.2 22.4 70 4.1 SE 22 28 12 15 1014.4 1014.4 0.0
06/11:00am 28.3 28.9 22.1 69 4.2 SE 22 28 12 15 1014.8 1014.8 0.0
06/10:30am 28.2 28.5 22.9 73 3.6 SE 26 32 14 17 1015.0 1015.0 0.0
06/10:00am 27.6 28.5 21.6 70 4.0 SSE 19 24 10 13 1015.1 1015.1 0.0
06/09:30am 27.0 27.6 21.3 71 3.8 SSE 20 24 11 13 1015.2 1015.2 0.0
06/09:00am 26.5 27.5 22.1 77 2.9 S 20 26 11 14 1015.1 1015.1 0.0
06/08:30am 25.6 26.6 22.1 81 2.3 S 20 24 11 13 1015.1 1015.1 0.0
06/08:00am 25.1 27.6 23.2 89 1.3 S 15 19 8 10 1014.7 1014.7 0.0
06/07:30am 23.7 26.6 22.5 93 0.8 SW 11 13 6 7 1014.4 1014.4 0.0
06/07:00am 22.8 26.2 22.0 95 0.5 WSW 7 11 4 6 1014.1 1014.1 0.0
06/06:30am 21.7 24.5 20.9 95 0.5 WSW 7 9 4 5 1013.8 1013.8 0.0
06/06:00am 21.8 24.7 21.0 95 0.5 WSW 7 9 4 5 1013.3 1013.3 0.0
06/05:30am 21.6 24.0 20.8 95 0.5 SW 9 11 5 6 1013.2 1013.2 0.0
06/05:00am 21.8 23.9 21.0 95 0.5 SW 11 13 6 7 1012.9 1012.9 0.0
06/04:30am 21.9 24.3 20.9 94 0.7 WSW 9 11 5 6 1012.7 1012.7 0.0
06/04:00am 22.4 25.2 21.6 95 0.5 WSW 9 11 5 6 1012.3 1012.3 0.0
06/03:30am 22.4 25.1 21.4 94 0.7 WSW 9 11 5 6 1012.1 1012.1 0.0
06/03:00am 22.7 25.9 21.7 94 0.7 SW 7 9 4 5 1012.3 1012.3 0.0
06/02:30am 23.1 26.2 22.1 94 0.7 WSW 9 11 5 6 1012.3 1012.3 0.0
06/02:00am 23.0 26.0 22.0 94 0.7 SW 9 11 5 6 1012.5 1012.5 0.0
06/01:30am 23.5 27.0 22.1 92 0.9 SW 7 11 4 6 1012.4 1012.4 0.0
06/01:00am 23.4 27.0 22.0 92 0.9 WSW 6 9 3 5 1012.7 1012.7 0.0
06/12:44am 23.6 27.2 22.0 91 1.1 WSW 6 9 3 5 1012.7 1012.7 0.0
06/12:30am 23.8 27.0 22.4 92 0.9 SW 9 13 5 7 1012.9 1012.9 0.0
06/12:00am 23.7 26.9 22.3 92 0.9 WSW 9 11 5 6 1013.1 1013.1 0.0
 
Date/Time
EST
Temp
°C
App
Temp
°C
Dew
Point
°C
Rel
Hum
%
Delta-T
°C
Wind Press
QNH
hPa
Press
MSL
hPa
Rain since
9am
mm
Dir  Spd
km/h
Gust
km/h
Spd
kts
Gust
kts
05/11:30pm 23.9 27.3 22.7 93 0.8 SW 9 11 5 6 1013.3 1013.3 0.0
05/11:20pm 23.9 27.7 22.7 93 0.8 SW 7 11 4 6 1013.3 1013.3 0.0
05/11:00pm 23.6 27.1 22.2 92 0.9 SW 7 9 4 5 1013.4 1013.4 0.0
05/10:30pm 24.2 27.8 23.0 93 0.8 SSW 9 11 5 6 1013.6 1013.6 0.0
05/10:00pm 24.0 27.2 22.4 91 1.1 SSW 9 11 5 6 1013.7 1013.7 0.0
05/09:30pm 24.0 27.2 22.3 90 1.1 SSW 9 11 5 6 1013.7 1013.7 0.0
05/09:00pm 24.1 27.2 22.2 89 1.3 SW 9 11 5 6 1013.5 1013.5 0.0
05/08:30pm 25.4 29.4 23.1 87 1.6 SE 7 9 4 5 1013.3 1013.3 0.0
05/08:00pm 25.6 29.9 23.3 87 1.6 ESE 6 9 3 5 1013.2 1013.2 0.0
05/07:30pm 25.9 30.0 23.2 85 1.8 E 7 9 4 5 1012.9 1012.9 0.0
05/07:00pm 26.0 29.6 23.1 84 2.0 E 9 13 5 7 1012.3 1012.3 0.0
05/06:30pm 26.1 29.1 22.6 81 2.4 E 11 13 6 7 1011.9 1011.9 0.0
05/06:00pm 26.5 28.8 22.1 77 3.0 E 13 20 7 11 1011.6 1011.6 0.0
05/05:30pm 27.2 29.8 22.6 76 3.1 ESE 13 17 7 9 1011.2 1011.2 0.0
05/05:00pm 27.7 29.9 22.6 74 3.5 E 15 20 8 11 1011.0 1011.0 0.0
05/04:30pm 28.1 29.7 22.8 73 3.6 ESE 19 24 10 13 1010.7 1010.7 0.0
05/04:00pm 28.4 30.2 23.3 74 3.5 E 19 24 10 13 1010.4 1010.4 0.0
05/03:30pm 28.6 29.9 22.6 70 4.1 ESE 20 26 11 14 1010.0 1010.0 0.0
05/03:00pm 28.9 30.3 22.9 70 4.1 E 20 28 11 15 1010.1 1010.1 0.0
05/02:30pm 28.9 29.8 22.6 69 4.3 E 22 30 12 16 1010.4 1010.4 0.0
05/02:00pm 29.5 31.0 23.0 68 4.4 E 20 28 11 15 1010.6 1010.6 0.0
05/01:30pm 28.8 29.6 22.5 68 4.3 ESE 22 28 12 15 1010.9 1010.9 0.0
05/01:00pm 28.9 30.4 23.1 71 4.0 ESE 20 28 11 15 1011.1 1011.1 0.0
05/12:30pm 28.4 29.5 21.9 68 4.4 E 19 24 10 13 1011.5 1011.5 0.0
05/12:00pm 29.5 30.8 21.7 63 5.2 E 17 20 9 11 1011.9 1011.9 0.0
05/11:30am 29.2 31.1 21.4 63 5.2 ESE 13 20 7 11 1012.3 1012.3 0.0
05/11:00am 28.6 31.3 22.1 68 4.4 ESE 11 17 6 9 1012.7 1012.7 0.0
05/10:30am 28.4 31.0 21.9 68 4.4 E 11 17 6 9 1012.8 1012.8 0.0
05/10:00am 28.2 30.7 21.7 68 4.4 E 11 15 6 8 1012.9 1012.9 0.0
05/09:30am 28.2 31.6 22.7 72 3.7 ESE 9 13 5 7 1012.9 1012.9 0.0
05/09:00am 27.7 32.6 22.4 73 3.6 CALM 0 7 0 4 1012.9 1012.9 0.0
05/08:30am 26.4 30.4 22.0 77 2.9 S 4 7 2 4 1012.9 1012.9 0.0
05/08:00am 24.9 29.7 22.2 85 1.8 CALM 0 0 0 0 1012.8 1012.8 0.0
05/07:30am 23.8 26.9 21.5 87 1.5 W 7 7 4 4 1012.6 1012.6 0.0
05/07:00am 22.6 25.7 21.4 93 0.8 WSW 7 9 4 5 1012.3 1012.3 0.0
05/06:30am 21.6 24.3 20.6 94 0.6 WSW 7 9 4 5 1011.6 1011.6 0.0
05/06:00am 21.3 23.7 20.1 93 0.8 W 7 9 4 5 1011.2 1011.2 0.0
05/05:30am 21.3 23.8 19.9 92 0.9 W 6 9 3 5 1010.7 1010.7 0.0
05/05:00am 21.5 24.5 20.1 92 0.9 W 4 6 2 3 1010.3 1010.3 0.0
05/04:30am 22.0 24.7 20.6 92 0.9 W 7 11 4 6 1009.9 1009.9 0.0
05/04:00am 22.1 25.0 20.7 92 0.9 W 6 11 3 6 1010.0 1010.0 0.0
05/03:30am 22.2 24.6 20.8 92 0.9 W 9 11 5 6 1009.9 1009.9 0.0
05/03:00am 22.3 24.7 20.9 92 0.9 WNW 9 11 5 6 1009.9 1009.9 0.0
05/02:30am 22.5 25.2 21.3 93 0.8 W 9 11 5 6 1010.1 1010.1 0.0
05/02:00am 22.1 25.8 20.7 92 0.9 W 2 6 1 3 1010.3 1010.3 0.0
05/01:30am 22.1 26.2 20.7 92 0.9 CALM 0 0 0 0 1010.6 1010.6 0.0
05/01:00am 22.6 25.7 21.4 93 0.8 NNW 7 11 4 6 1010.7 1010.7 0.0
05/12:30am 22.2 25.5 20.7 91 1.0 NNW 4 6 2 3 1010.8 1010.8 0.0
05/12:00am 22.4 25.4 20.9 91 1.0 NNW 6 7 3 4 1011.0 1011.0 0.0
 
Date/Time
EST
Temp
°C
App
Temp
°C
Dew
Point
°C
Rel
Hum
%
Delta-T
°C
Wind Press
QNH
hPa
Press
MSL
hPa
Rain since
9am
mm
Dir  Spd
km/h
Gust
km/h
Spd
kts
Gust
kts
04/11:30pm 22.7 25.8 21.0 90 1.1 NNW 6 7 3 4 1011.4 1011.4 0.0
04/11:00pm 22.9 25.9 21.2 90 1.1 NNW 7 9 4 5 1011.5 1011.5 0.0
04/10:30pm 22.9 26.0 21.0 89 1.2 NNW 6 7 3 4 1011.6 1011.6 0.0
04/10:00pm 23.5 26.8 21.4 88 1.4 NNW 6 7 3 4 1011.5 1011.5 0.0
04/09:30pm 23.9 27.3 21.6 87 1.5 NNW 6 7 3 4 1011.4 1011.4 0.0
04/09:00pm 24.2 27.5 21.5 85 1.8 NNW 6 6 3 3 1011.1 1011.1 0.0
04/08:30pm 24.2 27.5 21.9 87 1.5 NNW 7 9 4 5 1010.8 1010.8 0.0
04/08:00pm 24.5 27.8 21.8 85 1.8 NNW 7 9 4 5 1010.6 1010.6 0.0
04/07:30pm 24.9 27.8 21.8 83 2.1 N 9 11 5 6 1010.1 1010.1 0.0
04/07:00pm 25.4 27.9 21.7 80 2.5 N 11 13 6 7 1009.7 1009.7 0.0
04/06:30pm 25.7 28.5 21.6 78 2.7 NNE 9 13 5 7 1009.3 1009.3 0.0
04/06:00pm 26.2 28.2 21.6 76 3.1 NNE 13 17 7 9 1008.9 1008.9 0.0
04/05:30pm 27.0 28.7 21.7 73 3.5 NE 15 19 8 10 1008.4 1008.4 0.0
04/05:00pm 27.5 28.9 21.8 71 3.8 NE 17 20 9 11 1008.1 1008.1 0.0
04/04:30pm 28.2 28.8 21.0 65 4.8 NE 19 24 10 13 1007.7 1007.7 0.0
04/04:00pm 28.6 29.0 20.9 63 5.1 NNE 20 26 11 14 1007.5 1007.5 0.0
04/03:30pm 29.5 29.9 20.9 60 5.7 NE 20 28 11 15 1007.5 1007.5 0.0
04/03:00pm 29.7 30.2 20.8 58 5.9 NE 19 26 10 14 1007.5 1007.5 0.0
04/02:30pm 29.8 30.2 20.9 59 5.9 NE 20 26 11 14 1007.9 1007.9 0.0
04/02:00pm 29.5 29.4 19.5 55 6.5 NE 19 24 10 13 1008.0 1008.0 0.0
04/01:30pm 29.9 30.5 21.0 59 5.9 ENE 19 22 10 12 1008.4 1008.4 0.0
04/01:00pm 29.8 30.5 21.2 60 5.8 ENE 19 22 10 12 1008.9 1008.9 0.0
04/12:30pm 29.0 29.3 20.4 59 5.7 ENE 19 22 10 12 1009.5 1009.5 0.0
04/12:00pm 29.1 31.2 23.1 70 4.1 E 17 20 9 11 1009.9 1009.9 0.0
04/11:30am 28.1 29.0 20.9 65 4.8 E 17 20 9 11 1010.4 1010.4 0.0
04/11:00am 28.3 30.5 20.3 62 5.3 N 9 19 5 10 1010.4 1010.4 0.0
04/10:30am 28.4 31.4 21.2 65 4.8 NNE 7 15 4 8 1010.9 1010.9 0.0
04/10:00am 27.7 30.5 20.8 66 4.6 NNW 7 13 4 7 1011.2 1011.2 0.0
04/09:30am 27.0 30.0 21.3 71 3.8 W 7 13 4 7 1011.5 1011.5 0.0
04/09:00am 26.0 28.6 21.2 75 3.2 W 9 13 5 7 1011.4 1011.4 0.0
04/08:30am 24.8 26.7 21.3 81 2.3 W 13 15 7 8 1011.4 1011.4 0.0
04/08:00am 23.3 25.7 20.8 86 1.6 W 9 13 5 7 1011.1 1011.1 0.0
04/07:30am 22.0 24.0 19.9 88 1.3 W 9 13 5 7 1010.9 1010.9 0.0
04/07:00am 20.9 22.3 19.6 92 0.8 W 11 15 6 8 1010.8 1010.8 0.0
04/06:30am 20.4 21.7 19.4 94 0.6 W 11 15 6 8 1010.5 1010.5 0.0
04/06:00am 19.9 21.1 19.1 95 0.5 WNW 11 13 6 7 1010.3 1010.3 0.0
04/05:30am 20.0 21.9 19.0 94 0.6 WNW 7 9 4 5 1009.8 1009.8 0.0
04/05:00am 20.2 22.2 19.2 94 0.6 W 7 9 4 5 1009.9 1009.9 0.0
04/04:30am 20.2 21.9 19.4 95 0.5 WSW 9 13 5 7 1009.9 1009.9 0.0
04/04:00am 20.4 22.2 19.6 95 0.5 W 9 13 5 7 1009.5 1009.5 0.0
04/03:30am 20.4 23.4 19.2 93 0.8 NW 2 6 1 3 1009.3 1009.3 0.0
04/03:00am 20.8 22.3 19.8 94 0.6 W 11 15 6 8 1009.7 1009.7 0.0
04/02:30am 20.8 22.3 19.8 94 0.6 W 11 13 6 7 1010.0 1010.0 0.0
04/02:00am 20.5 22.7 19.5 94 0.6 WNW 7 11 4 6 1010.1 1010.1 0.0
04/01:30am 20.8 23.1 19.8 94 0.6 W 7 11 4 6 1010.2 1010.2 0.0
04/01:00am 20.5 22.3 19.5 94 0.6 WSW 9 11 5 6 1010.5 1010.5 0.0
04/12:30am 20.8 23.3 19.8 94 0.6 WSW 6 9 3 5 1010.6 1010.6 0.0
04/12:00am 20.7 22.9 19.5 93 0.8 WSW 7 9 4 5 1010.7 1010.7 0.0
 
Date/Time
EST
Temp
°C
App
Temp
°C
Dew
Point
°C
Rel
Hum
%
Delta-T
°C
Wind Press
QNH
hPa
Press
MSL
hPa
Rain since
9am
mm
Dir  Spd
km/h
Gust
km/h
Spd
kts
Gust
kts
03/11:30pm 20.8 23.0 19.5 92 0.8 W 7 9 4 5 1010.8 1010.8 0.0
03/11:00pm 21.0 22.5 19.8 93 0.8 WSW 11 11 6 6 1010.9 1010.9 0.0

Other formats

Comma delimited format used in spreadsheet applications
http://www.bom.gov.au/fwo/IDQ60801/IDQ60801.95367.axf

JavaScript Object Notation format (JSON) in row-major order
http://www.bom.gov.au/fwo/IDQ60801/IDQ60801.95367.json

Data quality

Most of these data are generated automatically and are frequently updated. Quality checks on data are not normally performed. It is possible for incorrect values to appear. Refer to information at About Latest Weather Observations and please check the disclaimer before using these data.